sensor_id;sensor_type;location;lat;lon;timestamp;pressure;altitude;pressure_sealevel;temperature;humidity
5703;BME280;2876;51.738;10.050;2023-07-13T00:00:27;99119.09;;;16.88;86.55
5703;BME280;2876;51.738;10.050;2023-07-13T00:06:29;99131.81;;;16.87;86.89
5703;BME280;2876;51.738;10.050;2023-07-13T00:12:38;99136.50;;;16.92;86.66
5703;BME280;2876;51.738;10.050;2023-07-13T00:18:45;99135.09;;;17.06;86.02
5703;BME280;2876;51.738;10.050;2023-07-13T00:24:47;99135.03;;;17.01;85.87
5703;BME280;2876;51.738;10.050;2023-07-13T00:30:49;99133.28;;;17.12;86.53
5703;BME280;2876;51.738;10.050;2023-07-13T00:36:51;99141.34;;;17.07;86.94
5703;BME280;2876;51.738;10.050;2023-07-13T00:42:53;99134.22;;;17.17;86.86
5703;BME280;2876;51.738;10.050;2023-07-13T00:49:05;99128.34;;;17.25;85.92
5703;BME280;2876;51.738;10.050;2023-07-13T00:55:09;99131.50;;;17.17;85.68
5703;BME280;2876;51.738;10.050;2023-07-13T01:01:12;99126.50;;;17.09;86.16
5703;BME280;2876;51.738;10.050;2023-07-13T01:07:15;99130.84;;;17.10;86.29
5703;BME280;2876;51.738;10.050;2023-07-13T01:13:17;99137.56;;;16.91;86.69
5703;BME280;2876;51.738;10.050;2023-07-13T01:19:44;99142.34;;;17.01;86.39
5703;BME280;2876;51.738;10.050;2023-07-13T01:25:46;99145.59;;;17.03;85.92
5703;BME280;2876;51.738;10.050;2023-07-13T01:31:48;99143.09;;;17.13;86.38
5703;BME280;2876;51.738;10.050;2023-07-13T01:37:51;99142.41;;;17.06;86.60
5703;BME280;2876;51.738;10.050;2023-07-13T01:43:53;99149.25;;;17.08;86.83
5703;BME280;2876;51.738;10.050;2023-07-13T01:49:55;99150.00;;;17.04;87.00
5703;BME280;2876;51.738;10.050;2023-07-13T01:55:57;99159.75;;;17.05;87.28
5703;BME280;2876;51.738;10.050;2023-07-13T02:01:59;99155.28;;;16.98;87.50
5703;BME280;2876;51.738;10.050;2023-07-13T02:08:01;99163.69;;;16.97;87.71
5703;BME280;2876;51.738;10.050;2023-07-13T02:14:03;99159.00;;;17.09;87.17
5703;BME280;2876;51.738;10.050;2023-07-13T02:20:06;99154.00;;;17.01;87.81
5703;BME280;2876;51.738;10.050;2023-07-13T02:26:09;99142.00;;;16.97;87.76
5703;BME280;2876;51.738;10.050;2023-07-13T02:32:12;99146.34;;;16.98;87.66
5703;BME280;2876;51.738;10.050;2023-07-13T02:38:14;99139.19;;;16.75;87.69
5703;BME280;2876;51.738;10.050;2023-07-13T02:44:16;99122.38;;;16.44;88.33
5703;BME280;2876;51.738;10.050;2023-07-13T02:50:18;99106.22;;;16.21;88.31
5703;BME280;2876;51.738;10.050;2023-07-13T02:56:26;99111.06;;;15.90;89.00
5703;BME280;2876;51.738;10.050;2023-07-13T03:02:28;99104.75;;;15.50;90.61
5703;BME280;2876;51.738;10.050;2023-07-13T03:08:31;99115.56;;;15.38;90.91
5703;BME280;2876;51.738;10.050;2023-07-13T03:14:33;99124.84;;;15.30;92.32
5703;BME280;2876;51.738;10.050;2023-07-13T03:20:35;99121.31;;;15.30;91.71
5703;BME280;2876;51.738;10.050;2023-07-13T03:26:38;99123.00;;;15.31;91.97
5703;BME280;2876;51.738;10.050;2023-07-13T03:32:40;99133.09;;;15.35;92.06
5703;BME280;2876;51.738;10.050;2023-07-13T03:38:42;99139.66;;;15.39;91.57
5703;BME280;2876;51.738;10.050;2023-07-13T03:44:44;99142.00;;;15.47;91.33
5703;BME280;2876;51.738;10.050;2023-07-13T03:50:52;99153.88;;;15.46;91.10
5703;BME280;2876;51.738;10.050;2023-07-13T03:56:54;99157.66;;;15.45;91.04
5703;BME280;2876;51.738;10.050;2023-07-13T04:02:56;99169.28;;;15.46;90.61
5703;BME280;2876;51.738;10.050;2023-07-13T04:09:00;99186.56;;;15.45;90.38
5703;BME280;2876;51.738;10.050;2023-07-13T04:15:03;99187.59;;;15.56;91.59
5703;BME280;2876;51.738;10.050;2023-07-13T04:21:05;99189.03;;;15.46;92.31
5703;BME280;2876;51.738;10.050;2023-07-13T04:27:07;99203.13;;;15.60;92.06
5703;BME280;2876;51.738;10.050;2023-07-13T04:33:09;99203.75;;;15.86;91.72
5703;BME280;2876;51.738;10.050;2023-07-13T04:39:11;99209.25;;;15.91;91.89
5703;BME280;2876;51.738;10.050;2023-07-13T04:45:14;99207.84;;;16.00;91.52
5703;BME280;2876;51.738;10.050;2023-07-13T04:51:16;99215.28;;;16.33;90.67
5703;BME280;2876;51.738;10.050;2023-07-13T04:57:19;99223.16;;;16.35;90.12
5703;BME280;2876;51.738;10.050;2023-07-13T05:03:20;99230.19;;;16.47;89.58
5703;BME280;2876;51.738;10.050;2023-07-13T05:09:23;99221.66;;;16.67;88.68
5703;BME280;2876;51.738;10.050;2023-07-13T05:15:26;99236.69;;;17.20;83.21
5703;BME280;2876;51.738;10.050;2023-07-13T05:21:28;99238.75;;;17.30;84.04
5703;BME280;2876;51.738;10.050;2023-07-13T05:27:30;99234.59;;;16.94;85.77
5703;BME280;2876;51.738;10.050;2023-07-13T05:33:32;99239.91;;;17.34;85.26
5703;BME280;2876;51.738;10.050;2023-07-13T05:39:34;99242.25;;;17.76;81.87
5703;BME280;2876;51.738;10.050;2023-07-13T05:45:36;99241.44;;;18.14;78.88
5703;BME280;2876;51.738;10.050;2023-07-13T05:51:38;99242.22;;;18.54;78.66
5703;BME280;2876;51.738;10.050;2023-07-13T05:57:40;99254.16;;;19.01;76.43
5703;BME280;2876;51.738;10.050;2023-07-13T06:03:42;99241.72;;;19.38;75.30
5703;BME280;2876;51.738;10.050;2023-07-13T06:09:44;99250.53;;;19.82;70.64
5703;BME280;2876;51.738;10.050;2023-07-13T06:15:49;99258.47;;;19.94;71.32
5703;BME280;2876;51.738;10.050;2023-07-13T06:21:51;99259.66;;;20.56;69.36
5703;BME280;2876;51.738;10.050;2023-07-13T06:27:55;99260.81;;;20.75;67.65
5703;BME280;2876;51.738;10.050;2023-07-13T06:33:57;99262.28;;;20.40;64.97
5703;BME280;2876;51.738;10.050;2023-07-13T06:39:59;99262.72;;;20.17;64.97
5703;BME280;2876;51.738;10.050;2023-07-13T06:46:01;99265.72;;;20.20;63.39
5703;BME280;2876;51.738;10.050;2023-07-13T06:52:04;99264.88;;;20.15;63.63
5703;BME280;2876;51.738;10.050;2023-07-13T06:58:07;99258.50;;;20.46;62.28
5703;BME280;2876;51.738;10.050;2023-07-13T07:04:09;99255.03;;;20.61;59.71
5703;BME280;2876;51.738;10.050;2023-07-13T07:10:11;99262.38;;;20.56;60.00
5703;BME280;2876;51.738;10.050;2023-07-13T07:16:13;99268.25;;;20.95;59.69
5703;BME280;2876;51.738;10.050;2023-07-13T07:22:15;99258.72;;;21.13;58.12
5703;BME280;2876;51.738;10.050;2023-07-13T07:28:17;99261.50;;;21.33;58.10
5703;BME280;2876;51.738;10.050;2023-07-13T07:34:22;99267.53;;;21.35;58.06
5703;BME280;2876;51.738;10.050;2023-07-13T07:40:24;99267.78;;;21.69;58.13
5703;BME280;2876;51.738;10.050;2023-07-13T07:46:30;99266.69;;;21.91;56.07
5703;BME280;2876;51.738;10.050;2023-07-13T07:52:32;99277.81;;;22.25;55.43
5703;BME280;2876;51.738;10.050;2023-07-13T07:58:34;99279.97;;;22.38;54.70
5703;BME280;2876;51.738;10.050;2023-07-13T08:04:39;99285.25;;;21.68;56.47
5703;BME280;2876;51.738;10.050;2023-07-13T08:11:06;99280.84;;;21.93;57.21
5703;BME280;2876;51.738;10.050;2023-07-13T08:17:12;99281.69;;;22.94;54.33
5703;BME280;2876;51.738;10.050;2023-07-13T08:23:13;99282.91;;;22.62;53.56
5703;BME280;2876;51.738;10.050;2023-07-13T08:29:17;99282.22;;;23.74;51.18
5703;BME280;2876;51.738;10.050;2023-07-13T08:35:18;99273.47;;;22.89;52.42
5703;BME280;2876;51.738;10.050;2023-07-13T08:41:21;99288.09;;;23.18;53.34
5703;BME280;2876;51.738;10.050;2023-07-13T08:47:24;99292.91;;;23.37;51.92
5703;BME280;2876;51.738;10.050;2023-07-13T08:53:38;99295.66;;;23.71;49.63
5703;BME280;2876;51.738;10.050;2023-07-13T08:59:43;99293.53;;;23.97;48.18
5703;BME280;2876;51.738;10.050;2023-07-13T09:05:59;99290.81;;;23.23;51.93
5703;BME280;2876;51.738;10.050;2023-07-13T09:18:56;99299.06;;;23.92;50.40
5703;BME280;2876;51.738;10.050;2023-07-13T09:25:10;99296.16;;;24.07;48.17
5703;BME280;2876;51.738;10.050;2023-07-13T09:31:36;99292.75;;;24.49;47.89
5703;BME280;2876;51.738;10.050;2023-07-13T09:37:39;99299.03;;;24.50;47.88
5703;BME280;2876;51.738;10.050;2023-07-13T09:44:09;99305.69;;;24.68;48.65
5703;BME280;2876;51.738;10.050;2023-07-13T09:50:16;99306.69;;;24.24;51.04
5703;BME280;2876;51.738;10.050;2023-07-13T09:56:25;99314.63;;;24.54;48.51
5703;BME280;2876;51.738;10.050;2023-07-13T10:02:32;99314.97;;;24.19;49.03
5703;BME280;2876;51.738;10.050;2023-07-13T10:08:35;99321.84;;;24.16;51.08
5703;BME280;2876;51.738;10.050;2023-07-13T10:14:38;99316.94;;;23.84;50.78
5703;BME280;2876;51.738;10.050;2023-07-13T10:20:41;99312.50;;;24.46;48.97
5703;BME280;2876;51.738;10.050;2023-07-13T10:27:00;99324.91;;;25.86;45.88
5703;BME280;2876;51.738;10.050;2023-07-13T10:33:08;99339.81;;;25.61;44.61
5703;BME280;2876;51.738;10.050;2023-07-13T10:39:23;99332.59;;;26.63;45.52
5703;BME280;2876;51.738;10.050;2023-07-13T10:45:33;99338.94;;;26.17;44.40
5703;BME280;2876;51.738;10.050;2023-07-13T10:51:36;99330.69;;;25.09;45.89
5703;BME280;2876;51.738;10.050;2023-07-13T10:57:42;99327.19;;;25.79;44.63
5703;BME280;2876;51.738;10.050;2023-07-13T11:04:00;99340.41;;;25.96;43.96
5703;BME280;2876;51.738;10.050;2023-07-13T11:10:06;99340.03;;;26.63;44.39
5703;BME280;2876;51.738;10.050;2023-07-13T11:16:46;99338.47;;;26.84;43.35
5703;BME280;2876;51.738;10.050;2023-07-13T11:22:51;99330.03;;;26.80;43.88
5703;BME280;2876;51.738;10.050;2023-07-13T11:28:53;99336.19;;;25.66;46.26
5703;BME280;2876;51.738;10.050;2023-07-13T11:34:55;99328.78;;;25.28;45.04
5703;BME280;2876;51.738;10.050;2023-07-13T11:41:04;99313.06;;;27.15;40.84
5703;BME280;2876;51.738;10.050;2023-07-13T11:47:16;99316.03;;;27.54;42.43
5703;BME280;2876;51.738;10.050;2023-07-13T11:53:19;99316.41;;;27.62;41.91
5703;BME280;2876;51.738;10.050;2023-07-13T11:59:21;99305.09;;;27.86;40.69
5703;BME280;2876;51.738;10.050;2023-07-13T12:05:23;99304.84;;;27.73;37.91
5703;BME280;2876;51.738;10.050;2023-07-13T12:11:27;99307.38;;;25.82;42.50
5703;BME280;2876;51.738;10.050;2023-07-13T12:17:29;99309.28;;;25.30;46.39
5703;BME280;2876;51.738;10.050;2023-07-13T12:23:34;99299.38;;;25.29;46.24
5703;BME280;2876;51.738;10.050;2023-07-13T12:29:37;99292.31;;;25.93;43.50
5703;BME280;2876;51.738;10.050;2023-07-13T12:35:50;99304.31;;;25.65;43.42
5703;BME280;2876;51.738;10.050;2023-07-13T12:41:54;99302.13;;;25.10;43.02
5703;BME280;2876;51.738;10.050;2023-07-13T12:48:16;99302.50;;;25.22;44.25
5703;BME280;2876;51.738;10.050;2023-07-13T12:54:28;99317.19;;;24.89;44.25
5703;BME280;2876;51.738;10.050;2023-07-13T13:00:36;99311.09;;;24.73;44.75
5703;BME280;2876;51.738;10.050;2023-07-13T13:06:40;99312.56;;;24.89;44.94
5703;BME280;2876;51.738;10.050;2023-07-13T13:12:43;99305.09;;;25.14;43.84
5703;BME280;2876;51.738;10.050;2023-07-13T13:18:46;99315.13;;;25.23;44.98
5703;BME280;2876;51.738;10.050;2023-07-13T13:24:48;99312.22;;;25.34;44.46
5703;BME280;2876;51.738;10.050;2023-07-13T13:30:51;99318.66;;;25.80;44.02
5703;BME280;2876;51.738;10.050;2023-07-13T13:36:54;99321.41;;;24.62;44.57
5703;BME280;2876;51.738;10.050;2023-07-13T13:43:01;99320.25;;;24.87;45.86
5703;BME280;2876;51.738;10.050;2023-07-13T13:49:03;99328.47;;;25.11;43.19
5703;BME280;2876;51.738;10.050;2023-07-13T13:55:17;99321.09;;;25.06;43.51
5703;BME280;2876;51.738;10.050;2023-07-13T14:01:22;99334.53;;;25.84;42.09
5703;BME280;2876;51.738;10.050;2023-07-13T14:07:26;99332.56;;;25.89;42.67
5703;BME280;2876;51.738;10.050;2023-07-13T14:13:47;99330.31;;;25.16;44.33
5703;BME280;2876;51.738;10.050;2023-07-13T14:19:51;99337.72;;;25.91;44.32
5703;BME280;2876;51.738;10.050;2023-07-13T14:25:58;99331.97;;;26.80;39.99
5703;BME280;2876;51.738;10.050;2023-07-13T14:32:00;99341.81;;;25.74;42.73
5703;BME280;2876;51.738;10.050;2023-07-13T14:38:02;99334.75;;;25.87;41.13
5703;BME280;2876;51.738;10.050;2023-07-13T14:44:15;99336.66;;;25.54;42.69
5703;BME280;2876;51.738;10.050;2023-07-13T14:50:30;99344.50;;;25.61;43.15
5703;BME280;2876;51.738;10.050;2023-07-13T14:56:32;99348.94;;;25.56;42.66
5703;BME280;2876;51.738;10.050;2023-07-13T15:02:36;99359.00;;;25.04;42.62
5703;BME280;2876;51.738;10.050;2023-07-13T15:08:40;99350.22;;;24.60;44.13
5703;BME280;2876;51.738;10.050;2023-07-13T15:14:44;99348.09;;;24.99;44.44
5703;BME280;2876;51.738;10.050;2023-07-13T15:20:48;99354.06;;;24.83;43.58
5703;BME280;2876;51.738;10.050;2023-07-13T15:26:50;99351.38;;;24.53;43.74
5703;BME280;2876;51.738;10.050;2023-07-13T15:32:52;99354.13;;;24.77;45.07
5703;BME280;2876;51.738;10.050;2023-07-13T15:38:55;99353.78;;;25.27;43.94
5703;BME280;2876;51.738;10.050;2023-07-13T15:44:57;99346.97;;;25.62;42.80
5703;BME280;2876;51.738;10.050;2023-07-13T15:51:05;99354.66;;;26.30;42.82
5703;BME280;2876;51.738;10.050;2023-07-13T15:57:12;99348.06;;;26.87;41.36
5703;BME280;2876;51.738;10.050;2023-07-13T16:03:14;99384.78;;;26.22;47.68
5703;BME280;2876;51.738;10.050;2023-07-13T16:09:20;99394.22;;;23.81;55.27
5703;BME280;2876;51.738;10.050;2023-07-13T16:15:28;99427.53;;;21.97;60.41
5703;BME280;2876;51.738;10.050;2023-07-13T16:21:44;99446.59;;;21.57;63.29
5703;BME280;2876;51.738;10.050;2023-07-13T16:27:48;99448.28;;;21.73;59.99
5703;BME280;2876;51.738;10.050;2023-07-13T16:33:50;99442.84;;;22.80;58.10
5703;BME280;2876;51.738;10.050;2023-07-13T16:39:54;99454.31;;;22.11;59.57
5703;BME280;2876;51.738;10.050;2023-07-13T16:46:00;99457.44;;;21.36;62.65
5703;BME280;2876;51.738;10.050;2023-07-13T16:52:05;99460.00;;;21.06;63.62
5703;BME280;2876;51.738;10.050;2023-07-13T16:58:09;99484.97;;;20.82;64.89
5703;BME280;2876;51.738;10.050;2023-07-13T17:04:15;99480.59;;;20.44;64.95
5703;BME280;2876;51.738;10.050;2023-07-13T17:10:23;99484.38;;;19.84;67.01
5703;BME280;2876;51.738;10.050;2023-07-13T17:16:25;99481.84;;;19.77;68.08
5703;BME280;2876;51.738;10.050;2023-07-13T17:22:30;99476.72;;;19.81;68.80
5703;BME280;2876;51.738;10.050;2023-07-13T17:28:32;99459.16;;;19.44;69.15
5703;BME280;2876;51.738;10.050;2023-07-13T17:34:34;99463.63;;;19.34;70.41
5703;BME280;2876;51.738;10.050;2023-07-13T17:40:37;99464.88;;;19.48;70.28
5703;BME280;2876;51.738;10.050;2023-07-13T17:46:40;99463.34;;;19.57;71.12
5703;BME280;2876;51.738;10.050;2023-07-13T17:52:43;99464.56;;;19.66;70.54
5703;BME280;2876;51.738;10.050;2023-07-13T17:58:45;99474.53;;;20.37;65.97
5703;BME280;2876;51.738;10.050;2023-07-13T18:04:49;99478.31;;;20.04;66.61
5703;BME280;2876;51.738;10.050;2023-07-13T18:10:58;99478.41;;;19.87;67.64
5703;BME280;2876;51.738;10.050;2023-07-13T18:17:00;99475.41;;;19.61;70.84
5703;BME280;2876;51.738;10.050;2023-07-13T18:23:03;99469.44;;;19.20;71.81
5703;BME280;2876;51.738;10.050;2023-07-13T18:29:09;99472.97;;;19.87;69.57
5703;BME280;2876;51.738;10.050;2023-07-13T18:35:30;99484.50;;;19.28;71.41
5703;BME280;2876;51.738;10.050;2023-07-13T18:41:33;99485.28;;;19.23;72.14
5703;BME280;2876;51.738;10.050;2023-07-13T18:47:38;99495.09;;;18.86;70.92
5703;BME280;2876;51.738;10.050;2023-07-13T18:53:40;99499.13;;;18.83;71.08
5703;BME280;2876;51.738;10.050;2023-07-13T18:59:42;99509.84;;;18.73;71.75
5703;BME280;2876;51.738;10.050;2023-07-13T19:05:45;99508.09;;;18.67;72.20
5703;BME280;2876;51.738;10.050;2023-07-13T19:12:01;99494.34;;;18.57;72.91
5703;BME280;2876;51.738;10.050;2023-07-13T19:18:21;99491.88;;;18.55;72.82
5703;BME280;2876;51.738;10.050;2023-07-13T19:24:25;99491.47;;;18.80;73.19
5703;BME280;2876;51.738;10.050;2023-07-13T19:30:28;99505.13;;;18.51;73.19
5703;BME280;2876;51.738;10.050;2023-07-13T19:36:30;99508.50;;;18.42;74.54
5703;BME280;2876;51.738;10.050;2023-07-13T19:42:32;99517.56;;;18.64;74.79
5703;BME280;2876;51.738;10.050;2023-07-13T19:48:35;99526.78;;;18.46;75.34
5703;BME280;2876;51.738;10.050;2023-07-13T19:54:38;99541.34;;;18.40;74.83
5703;BME280;2876;51.738;10.050;2023-07-13T20:00:43;99546.78;;;18.57;75.06
5703;BME280;2876;51.738;10.050;2023-07-13T20:06:46;99554.84;;;18.35;77.45
5703;BME280;2876;51.738;10.050;2023-07-13T20:12:52;99543.34;;;17.99;79.08
5703;BME280;2876;51.738;10.050;2023-07-13T20:18:54;99562.41;;;17.76;79.63
5703;BME280;2876;51.738;10.050;2023-07-13T20:24:56;99558.56;;;17.89;79.23
5703;BME280;2876;51.738;10.050;2023-07-13T20:30:59;99561.91;;;17.79;79.30
5703;BME280;2876;51.738;10.050;2023-07-13T20:43:24;99568.41;;;17.90;78.79
5703;BME280;2876;51.738;10.050;2023-07-13T20:49:26;99576.91;;;17.70;80.11
5703;BME280;2876;51.738;10.050;2023-07-13T20:55:30;99583.53;;;17.74;80.76
5703;BME280;2876;51.738;10.050;2023-07-13T21:01:35;99572.78;;;17.79;80.55
5703;BME280;2876;51.738;10.050;2023-07-13T21:07:39;99581.84;;;17.73;80.03
5703;BME280;2876;51.738;10.050;2023-07-13T21:13:41;99580.44;;;17.82;79.77
5703;BME280;2876;51.738;10.050;2023-07-13T21:19:43;99581.13;;;17.89;79.40
5703;BME280;2876;51.738;10.050;2023-07-13T21:25:45;99589.03;;;17.91;80.06
5703;BME280;2876;51.738;10.050;2023-07-13T21:31:47;99595.66;;;17.83;81.14
5703;BME280;2876;51.738;10.050;2023-07-13T21:37:50;99597.81;;;17.81;81.54
5703;BME280;2876;51.738;10.050;2023-07-13T21:43:53;99592.19;;;17.99;81.55
5703;BME280;2876;51.738;10.050;2023-07-13T21:49:56;99589.25;;;17.89;81.88
5703;BME280;2876;51.738;10.050;2023-07-13T21:56:01;99594.84;;;17.59;83.22
5703;BME280;2876;51.738;10.050;2023-07-13T22:02:04;99594.25;;;17.57;83.69
5703;BME280;2876;51.738;10.050;2023-07-13T22:08:09;99584.16;;;17.41;84.31
5703;BME280;2876;51.738;10.050;2023-07-13T22:14:12;99584.63;;;17.38;84.74
5703;BME280;2876;51.738;10.050;2023-07-13T22:20:20;99581.56;;;17.11;86.44
5703;BME280;2876;51.738;10.050;2023-07-13T22:26:29;99589.13;;;16.97;86.63
5703;BME280;2876;51.738;10.050;2023-07-13T22:32:32;99598.41;;;16.89;86.96
5703;BME280;2876;51.738;10.050;2023-07-13T22:38:34;99588.16;;;16.80;87.22
5703;BME280;2876;51.738;10.050;2023-07-13T22:44:37;99586.22;;;16.68;87.11
5703;BME280;2876;51.738;10.050;2023-07-13T22:50:38;99588.19;;;16.49;87.61
5703;BME280;2876;51.738;10.050;2023-07-13T22:56:40;99594.72;;;16.30;88.20
5703;BME280;2876;51.738;10.050;2023-07-13T23:02:43;99581.41;;;16.17;88.63
5703;BME280;2876;51.738;10.050;2023-07-13T23:08:46;99580.06;;;15.89;89.77
5703;BME280;2876;51.738;10.050;2023-07-13T23:14:50;99579.59;;;15.81;90.55
5703;BME280;2876;51.738;10.050;2023-07-13T23:20:51;99586.84;;;15.80;91.10
5703;BME280;2876;51.738;10.050;2023-07-13T23:26:54;99586.34;;;15.90;90.45
5703;BME280;2876;51.738;10.050;2023-07-13T23:33:25;99575.44;;;15.60;91.66
5703;BME280;2876;51.738;10.050;2023-07-13T23:39:28;99579.50;;;15.51;91.97
5703;BME280;2876;51.738;10.050;2023-07-13T23:45:31;99576.69;;;15.39;93.03
5703;BME280;2876;51.738;10.050;2023-07-13T23:51:34;99583.81;;;15.33;93.99
5703;BME280;2876;51.738;10.050;2023-07-13T23:57:36;99581.91;;;15.40;95.04
